sensor_id;sensor_type;location;lat;lon;timestamp;P1;durP1;ratioP1;P2;durP2;ratioP2
73859;SDS011;62197;51.632;13.700;2023-05-14T00:03:50;6.90;;;5.60;;
73859;SDS011;62197;51.632;13.700;2023-05-14T00:08:40;6.40;;;4.40;;
73859;SDS011;62197;51.632;13.700;2023-05-14T00:13:32;6.25;;;5.00;;
73859;SDS011;62197;51.632;13.700;2023-05-14T00:15:58;6.03;;;4.97;;
73859;SDS011;62197;51.632;13.700;2023-05-14T00:20:49;7.93;;;4.73;;
73859;SDS011;62197;51.632;13.700;2023-05-14T00:23:18;5.93;;;4.32;;
73859;SDS011;62197;51.632;13.700;2023-05-14T00:28:09;6.13;;;4.80;;
73859;SDS011;62197;51.632;13.700;2023-05-14T00:33:00;5.93;;;4.87;;
73859;SDS011;62197;51.632;13.700;2023-05-14T00:37:50;5.83;;;4.73;;
73859;SDS011;62197;51.632;13.700;2023-05-14T00:42:41;5.27;;;4.40;;
73859;SDS011;62197;51.632;13.700;2023-05-14T00:47:31;6.18;;;4.65;;
73859;SDS011;62197;51.632;13.700;2023-05-14T00:49:58;6.97;;;5.13;;
73859;SDS011;62197;51.632;13.700;2023-05-14T00:52:24;6.32;;;4.90;;
73859;SDS011;62197;51.632;13.700;2023-05-14T00:57:16;6.10;;;4.60;;
73859;SDS011;62197;51.632;13.700;2023-05-14T00:59:42;7.63;;;4.55;;
73859;SDS011;62197;51.632;13.700;2023-05-14T01:02:08;8.15;;;5.70;;
73859;SDS011;62197;51.632;13.700;2023-05-14T01:04:33;6.93;;;5.75;;
73859;SDS011;62197;51.632;13.700;2023-05-14T01:12:44;7.95;;;5.60;;
73859;SDS011;62197;51.632;13.700;2023-05-14T01:15:21;7.82;;;5.35;;
73859;SDS011;62197;51.632;13.700;2023-05-14T01:17:50;7.05;;;5.53;;
73859;SDS011;62197;51.632;13.700;2023-05-14T01:20:20;7.72;;;5.55;;
73859;SDS011;62197;51.632;13.700;2023-05-14T01:22:46;7.28;;;4.85;;
73859;SDS011;62197;51.632;13.700;2023-05-14T01:27:40;7.03;;;5.23;;
73859;SDS011;62197;51.632;13.700;2023-05-14T01:30:18;7.10;;;5.13;;
73859;SDS011;62197;51.632;13.700;2023-05-14T01:32:52;7.90;;;4.82;;
73859;SDS011;62197;51.632;13.700;2023-05-14T01:35:21;9.88;;;6.15;;
73859;SDS011;62197;51.632;13.700;2023-05-14T01:37:49;7.75;;;5.43;;
73859;SDS011;62197;51.632;13.700;2023-05-14T01:40:16;9.45;;;5.93;;
73859;SDS011;62197;51.632;13.700;2023-05-14T01:45:07;8.25;;;5.40;;
73859;SDS011;62197;51.632;13.700;2023-05-14T01:49:58;6.70;;;5.23;;
73859;SDS011;62197;51.632;13.700;2023-05-14T01:52:24;6.13;;;5.28;;
73859;SDS011;62197;51.632;13.700;2023-05-14T01:57:14;7.87;;;5.30;;
73859;SDS011;62197;51.632;13.700;2023-05-14T02:02:05;7.70;;;5.73;;
73859;SDS011;62197;51.632;13.700;2023-05-14T02:04:30;7.60;;;6.43;;
73859;SDS011;62197;51.632;13.700;2023-05-14T02:09:21;8.53;;;5.90;;
73859;SDS011;62197;51.632;13.700;2023-05-14T02:11:46;9.48;;;6.38;;
73859;SDS011;62197;51.632;13.700;2023-05-14T02:14:11;11.02;;;5.90;;
73859;SDS011;62197;51.632;13.700;2023-05-14T02:16:39;9.88;;;7.22;;
73859;SDS011;62197;51.632;13.700;2023-05-14T02:21:30;8.77;;;5.90;;
73859;SDS011;62197;51.632;13.700;2023-05-14T02:23:56;8.50;;;6.63;;
73859;SDS011;62197;51.632;13.700;2023-05-14T02:26:21;10.48;;;7.53;;
73859;SDS011;62197;51.632;13.700;2023-05-14T02:28:46;10.20;;;6.68;;
73859;SDS011;62197;51.632;13.700;2023-05-14T02:31:12;10.05;;;6.65;;
73859;SDS011;62197;51.632;13.700;2023-05-14T02:33:38;8.98;;;6.47;;
73859;SDS011;62197;51.632;13.700;2023-05-14T02:38:28;9.37;;;6.07;;
73859;SDS011;62197;51.632;13.700;2023-05-14T02:43:19;9.83;;;6.93;;
73859;SDS011;62197;51.632;13.700;2023-05-14T02:45:44;10.75;;;7.18;;
73859;SDS011;62197;51.632;13.700;2023-05-14T02:50:35;9.40;;;7.23;;
73859;SDS011;62197;51.632;13.700;2023-05-14T02:55:25;12.77;;;7.22;;
73859;SDS011;62197;51.632;13.700;2023-05-14T03:00:17;11.75;;;7.53;;
73859;SDS011;62197;51.632;13.700;2023-05-14T03:05:08;10.23;;;7.40;;
73859;SDS011;62197;51.632;13.700;2023-05-14T03:07:33;12.13;;;7.78;;
73859;SDS011;62197;51.632;13.700;2023-05-14T03:12:24;11.43;;;8.57;;
73859;SDS011;62197;51.632;13.700;2023-05-14T03:14:50;10.65;;;7.93;;
73859;SDS011;62197;51.632;13.700;2023-05-14T03:17:15;16.60;;;8.43;;
73859;SDS011;62197;51.632;13.700;2023-05-14T03:19:41;11.65;;;8.60;;
73859;SDS011;62197;51.632;13.700;2023-05-14T03:22:06;11.65;;;8.30;;
73859;SDS011;62197;51.632;13.700;2023-05-14T03:24:31;15.38;;;8.30;;
73859;SDS011;62197;51.632;13.700;2023-05-14T03:26:57;12.60;;;9.05;;
73859;SDS011;62197;51.632;13.700;2023-05-14T03:29:22;15.10;;;8.40;;
73859;SDS011;62197;51.632;13.700;2023-05-14T03:31:47;16.98;;;9.35;;
73859;SDS011;62197;51.632;13.700;2023-05-14T03:34:14;13.70;;;8.50;;
73859;SDS011;62197;51.632;13.700;2023-05-14T03:36:39;13.02;;;9.27;;
73859;SDS011;62197;51.632;13.700;2023-05-14T03:39:05;14.32;;;10.18;;
73859;SDS011;62197;51.632;13.700;2023-05-14T03:41:33;12.82;;;9.48;;
73859;SDS011;62197;51.632;13.700;2023-05-14T03:43:59;13.52;;;8.93;;
73859;SDS011;62197;51.632;13.700;2023-05-14T03:48:50;13.17;;;9.63;;
73859;SDS011;62197;51.632;13.700;2023-05-14T03:51:15;13.10;;;9.07;;
73859;SDS011;62197;51.632;13.700;2023-05-14T03:56:06;14.93;;;9.70;;
73859;SDS011;62197;51.632;13.700;2023-05-14T03:58:31;11.88;;;8.45;;
73859;SDS011;62197;51.632;13.700;2023-05-14T04:03:22;16.20;;;9.23;;
73859;SDS011;62197;51.632;13.700;2023-05-14T04:05:47;13.65;;;8.45;;
73859;SDS011;62197;51.632;13.700;2023-05-14T04:10:37;12.80;;;8.30;;
73859;SDS011;62197;51.632;13.700;2023-05-14T04:13:03;11.68;;;8.60;;
73859;SDS011;62197;51.632;13.700;2023-05-14T04:17:53;14.03;;;9.47;;
73859;SDS011;62197;51.632;13.700;2023-05-14T04:20:19;11.60;;;9.25;;
73859;SDS011;62197;51.632;13.700;2023-05-14T04:25:09;13.60;;;9.10;;
73859;SDS011;62197;51.632;13.700;2023-05-14T04:30:00;12.30;;;9.03;;
73859;SDS011;62197;51.632;13.700;2023-05-14T04:32:25;13.32;;;9.93;;
73859;SDS011;62197;51.632;13.700;2023-05-14T04:34:50;12.90;;;9.82;;
73859;SDS011;62197;51.632;13.700;2023-05-14T04:37:16;12.13;;;10.00;;
73859;SDS011;62197;51.632;13.700;2023-05-14T04:39:41;11.63;;;9.05;;
73859;SDS011;62197;51.632;13.700;2023-05-14T04:42:07;12.15;;;8.13;;
73859;SDS011;62197;51.632;13.700;2023-05-14T04:46:58;12.45;;;9.27;;
73859;SDS011;62197;51.632;13.700;2023-05-14T04:51:49;13.43;;;9.53;;
73859;SDS011;62197;51.632;13.700;2023-05-14T04:56:40;11.23;;;8.57;;
73859;SDS011;62197;51.632;13.700;2023-05-14T05:01:30;13.02;;;8.43;;
73859;SDS011;62197;51.632;13.700;2023-05-14T05:06:21;12.90;;;8.80;;
73859;SDS011;62197;51.632;13.700;2023-05-14T05:11:12;11.73;;;8.27;;
73859;SDS011;62197;51.632;13.700;2023-05-14T05:16:02;11.63;;;8.00;;
73859;SDS011;62197;51.632;13.700;2023-05-14T05:20:53;12.10;;;7.93;;
73859;SDS011;62197;51.632;13.700;2023-05-14T05:25:44;10.43;;;8.10;;
73859;SDS011;62197;51.632;13.700;2023-05-14T05:28:09;12.55;;;8.60;;
73859;SDS011;62197;51.632;13.700;2023-05-14T05:32:59;12.03;;;7.93;;
73859;SDS011;62197;51.632;13.700;2023-05-14T05:35:25;10.90;;;8.30;;
73859;SDS011;62197;51.632;13.700;2023-05-14T05:40:15;10.37;;;7.90;;
73859;SDS011;62197;51.632;13.700;2023-05-14T05:45:06;10.00;;;7.97;;
73859;SDS011;62197;51.632;13.700;2023-05-14T05:49:57;9.23;;;6.57;;
73859;SDS011;62197;51.632;13.700;2023-05-14T05:52:22;11.70;;;7.07;;
73859;SDS011;62197;51.632;13.700;2023-05-14T05:54:48;11.32;;;7.38;;
73859;SDS011;62197;51.632;13.700;2023-05-14T05:59:38;9.87;;;7.47;;
73859;SDS011;62197;51.632;13.700;2023-05-14T06:02:03;12.38;;;7.07;;
73859;SDS011;62197;51.632;13.700;2023-05-14T06:04:29;8.48;;;6.85;;
73859;SDS011;62197;51.632;13.700;2023-05-14T06:06:54;11.43;;;6.97;;
73859;SDS011;62197;51.632;13.700;2023-05-14T06:09:19;10.60;;;7.00;;
73859;SDS011;62197;51.632;13.700;2023-05-14T06:11:45;9.35;;;6.97;;
73859;SDS011;62197;51.632;13.700;2023-05-14T06:14:10;9.02;;;6.75;;
73859;SDS011;62197;51.632;13.700;2023-05-14T06:16:35;12.38;;;7.38;;
73859;SDS011;62197;51.632;13.700;2023-05-14T06:19:01;10.23;;;7.25;;
73859;SDS011;62197;51.632;13.700;2023-05-14T06:21:26;11.73;;;7.43;;
73859;SDS011;62197;51.632;13.700;2023-05-14T06:23:51;11.65;;;7.50;;
73859;SDS011;62197;51.632;13.700;2023-05-14T06:26:17;9.93;;;7.50;;
73859;SDS011;62197;51.632;13.700;2023-05-14T06:28:42;12.00;;;7.10;;
73859;SDS011;62197;51.632;13.700;2023-05-14T06:31:08;9.68;;;7.13;;
73859;SDS011;62197;51.632;13.700;2023-05-14T06:33:34;10.93;;;7.15;;
73859;SDS011;62197;51.632;13.700;2023-05-14T06:36:03;11.45;;;7.63;;
73859;SDS011;62197;51.632;13.700;2023-05-14T06:38:29;10.40;;;7.50;;
73859;SDS011;62197;51.632;13.700;2023-05-14T06:40:55;9.40;;;6.90;;
73859;SDS011;62197;51.632;13.700;2023-05-14T06:43:20;15.35;;;7.30;;
73859;SDS011;62197;51.632;13.700;2023-05-14T06:45:52;13.00;;;6.35;;
73859;SDS011;62197;51.632;13.700;2023-05-14T06:48:17;10.48;;;7.25;;
73859;SDS011;62197;51.632;13.700;2023-05-14T06:50:43;10.57;;;6.88;;
73859;SDS011;62197;51.632;13.700;2023-05-14T06:53:09;11.20;;;7.25;;
73859;SDS011;62197;51.632;13.700;2023-05-14T06:55:34;12.10;;;7.22;;
73859;SDS011;62197;51.632;13.700;2023-05-14T06:58:00;13.95;;;7.57;;
73859;SDS011;62197;51.632;13.700;2023-05-14T07:00:25;10.02;;;7.50;;
73859;SDS011;62197;51.632;13.700;2023-05-14T07:02:50;10.13;;;6.40;;
73859;SDS011;62197;51.632;13.700;2023-05-14T07:05:16;9.55;;;7.50;;
73859;SDS011;62197;51.632;13.700;2023-05-14T07:07:41;10.63;;;7.30;;
73859;SDS011;62197;51.632;13.700;2023-05-14T07:10:06;12.48;;;7.75;;
73859;SDS011;62197;51.632;13.700;2023-05-14T07:12:32;11.07;;;7.55;;
73859;SDS011;62197;51.632;13.700;2023-05-14T07:14:57;12.60;;;8.15;;
73859;SDS011;62197;51.632;13.700;2023-05-14T07:17:22;10.73;;;7.78;;
73859;SDS011;62197;51.632;13.700;2023-05-14T07:19:48;11.45;;;7.63;;
73859;SDS011;62197;51.632;13.700;2023-05-14T07:22:13;11.00;;;6.57;;
73859;SDS011;62197;51.632;13.700;2023-05-14T07:24:38;11.23;;;7.35;;
73859;SDS011;62197;51.632;13.700;2023-05-14T07:27:04;13.68;;;7.53;;
73859;SDS011;62197;51.632;13.700;2023-05-14T07:29:30;10.20;;;7.60;;
73859;SDS011;62197;51.632;13.700;2023-05-14T07:31:55;11.50;;;7.00;;
73859;SDS011;62197;51.632;13.700;2023-05-14T07:34:20;13.35;;;8.30;;
73859;SDS011;62197;51.632;13.700;2023-05-14T07:36:46;8.65;;;6.30;;
73859;SDS011;62197;51.632;13.700;2023-05-14T07:39:11;8.27;;;6.32;;
73859;SDS011;62197;51.632;13.700;2023-05-14T07:41:36;11.25;;;6.82;;
73859;SDS011;62197;51.632;13.700;2023-05-14T07:44:02;12.27;;;7.13;;
73859;SDS011;62197;51.632;13.700;2023-05-14T07:46:27;12.65;;;7.30;;
73859;SDS011;62197;51.632;13.700;2023-05-14T07:48:52;13.25;;;7.30;;
73859;SDS011;62197;51.632;13.700;2023-05-14T07:51:18;9.90;;;7.13;;
73859;SDS011;62197;51.632;13.700;2023-05-14T07:53:43;9.52;;;6.05;;
73859;SDS011;62197;51.632;13.700;2023-05-14T07:56:08;26.25;;;7.57;;
73859;SDS011;62197;51.632;13.700;2023-05-14T07:58:34;10.02;;;6.63;;
73859;SDS011;62197;51.632;13.700;2023-05-14T08:00:59;9.88;;;5.63;;
73859;SDS011;62197;51.632;13.700;2023-05-14T08:03:26;8.18;;;6.20;;
73859;SDS011;62197;51.632;13.700;2023-05-14T08:05:51;9.55;;;5.72;;
73859;SDS011;62197;51.632;13.700;2023-05-14T08:08:16;8.10;;;5.30;;
73859;SDS011;62197;51.632;13.700;2023-05-14T08:10:42;10.40;;;5.22;;
73859;SDS011;62197;51.632;13.700;2023-05-14T08:13:07;7.75;;;5.10;;
73859;SDS011;62197;51.632;13.700;2023-05-14T08:15:32;7.65;;;4.47;;
73859;SDS011;62197;51.632;13.700;2023-05-14T08:17:58;7.05;;;4.85;;
73859;SDS011;62197;51.632;13.700;2023-05-14T08:20:27;7.28;;;4.13;;
73859;SDS011;62197;51.632;13.700;2023-05-14T08:22:53;8.23;;;4.63;;
73859;SDS011;62197;51.632;13.700;2023-05-14T08:25:18;8.80;;;4.95;;
73859;SDS011;62197;51.632;13.700;2023-05-14T08:27:44;6.40;;;3.85;;
73859;SDS011;62197;51.632;13.700;2023-05-14T08:30:10;5.03;;;4.13;;
73859;SDS011;62197;51.632;13.700;2023-05-14T08:32:35;6.38;;;3.65;;
73859;SDS011;62197;51.632;13.700;2023-05-14T08:35:02;7.15;;;3.80;;
73859;SDS011;62197;51.632;13.700;2023-05-14T08:37:27;7.68;;;3.65;;
73859;SDS011;62197;51.632;13.700;2023-05-14T08:39:53;6.10;;;3.03;;
73859;SDS011;62197;51.632;13.700;2023-05-14T08:42:19;5.35;;;3.08;;
73859;SDS011;62197;51.632;13.700;2023-05-14T08:44:49;3.80;;;2.92;;
73859;SDS011;62197;51.632;13.700;2023-05-14T08:47:25;5.07;;;2.83;;
73859;SDS011;62197;51.632;13.700;2023-05-14T08:50:05;4.00;;;2.65;;
73859;SDS011;62197;51.632;13.700;2023-05-14T08:52:34;3.17;;;2.60;;
73859;SDS011;62197;51.632;13.700;2023-05-14T08:55:00;4.97;;;2.50;;
73859;SDS011;62197;51.632;13.700;2023-05-14T08:57:28;4.50;;;2.67;;
73859;SDS011;62197;51.632;13.700;2023-05-14T08:59:55;6.20;;;2.88;;
73859;SDS011;62197;51.632;13.700;2023-05-14T09:02:22;4.95;;;2.95;;
73859;SDS011;62197;51.632;13.700;2023-05-14T09:04:50;4.05;;;2.58;;
73859;SDS011;62197;51.632;13.700;2023-05-14T09:07:19;4.55;;;2.95;;
73859;SDS011;62197;51.632;13.700;2023-05-14T09:09:45;8.88;;;2.20;;
73859;SDS011;62197;51.632;13.700;2023-05-14T09:12:11;4.80;;;2.53;;
73859;SDS011;62197;51.632;13.700;2023-05-14T09:14:36;5.80;;;2.70;;
73859;SDS011;62197;51.632;13.700;2023-05-14T09:17:01;4.22;;;2.13;;
73859;SDS011;62197;51.632;13.700;2023-05-14T09:19:27;4.43;;;2.42;;
73859;SDS011;62197;51.632;13.700;2023-05-14T09:21:54;6.30;;;2.55;;
73859;SDS011;62197;51.632;13.700;2023-05-14T09:24:23;3.40;;;2.63;;
73859;SDS011;62197;51.632;13.700;2023-05-14T09:26:52;3.45;;;2.33;;
73859;SDS011;62197;51.632;13.700;2023-05-14T09:29:18;3.67;;;2.42;;
73859;SDS011;62197;51.632;13.700;2023-05-14T09:31:43;3.20;;;2.55;;
73859;SDS011;62197;51.632;13.700;2023-05-14T09:34:09;5.57;;;2.90;;
73859;SDS011;62197;51.632;13.700;2023-05-14T09:36:34;4.68;;;2.58;;
73859;SDS011;62197;51.632;13.700;2023-05-14T09:39:02;4.22;;;2.30;;
73859;SDS011;62197;51.632;13.700;2023-05-14T09:41:28;5.90;;;2.28;;
73859;SDS011;62197;51.632;13.700;2023-05-14T09:43:53;4.75;;;2.45;;
73859;SDS011;62197;51.632;13.700;2023-05-14T09:46:20;3.92;;;2.22;;
73859;SDS011;62197;51.632;13.700;2023-05-14T09:48:46;3.25;;;2.30;;
73859;SDS011;62197;51.632;13.700;2023-05-14T09:51:12;3.28;;;2.20;;
73859;SDS011;62197;51.632;13.700;2023-05-14T09:53:37;3.58;;;2.35;;
73859;SDS011;62197;51.632;13.700;2023-05-14T09:56:03;4.22;;;2.00;;
73859;SDS011;62197;51.632;13.700;2023-05-14T09:58:29;4.45;;;2.10;;
73859;SDS011;62197;51.632;13.700;2023-05-14T10:00:54;3.17;;;2.05;;
73859;SDS011;62197;51.632;13.700;2023-05-14T10:03:21;3.60;;;2.35;;
73859;SDS011;62197;51.632;13.700;2023-05-14T10:05:50;3.95;;;2.65;;
73859;SDS011;62197;51.632;13.700;2023-05-14T10:08:26;4.68;;;2.30;;
73859;SDS011;62197;51.632;13.700;2023-05-14T10:10:54;3.72;;;2.60;;
73859;SDS011;62197;51.632;13.700;2023-05-14T10:13:23;5.82;;;3.47;;
73859;SDS011;62197;51.632;13.700;2023-05-14T10:16:12;5.80;;;2.47;;
73859;SDS011;62197;51.632;13.700;2023-05-14T10:18:54;3.08;;;2.45;;
73859;SDS011;62197;51.632;13.700;2023-05-14T10:21:24;4.25;;;2.67;;
73859;SDS011;62197;51.632;13.700;2023-05-14T10:23:52;4.07;;;2.40;;
73859;SDS011;62197;51.632;13.700;2023-05-14T10:26:17;4.38;;;2.50;;
73859;SDS011;62197;51.632;13.700;2023-05-14T10:28:43;3.60;;;2.22;;
73859;SDS011;62197;51.632;13.700;2023-05-14T10:31:09;4.72;;;2.55;;
73859;SDS011;62197;51.632;13.700;2023-05-14T10:33:47;4.57;;;2.53;;
73859;SDS011;62197;51.632;13.700;2023-05-14T10:36:14;4.78;;;2.63;;
73859;SDS011;62197;51.632;13.700;2023-05-14T10:38:41;5.95;;;2.92;;
73859;SDS011;62197;51.632;13.700;2023-05-14T10:41:09;4.47;;;2.55;;
73859;SDS011;62197;51.632;13.700;2023-05-14T10:43:37;3.60;;;2.50;;
73859;SDS011;62197;51.632;13.700;2023-05-14T10:46:03;3.45;;;2.67;;
73859;SDS011;62197;51.632;13.700;2023-05-14T10:48:29;6.40;;;2.70;;
73859;SDS011;62197;51.632;13.700;2023-05-14T10:50:55;3.90;;;3.10;;
73859;SDS011;62197;51.632;13.700;2023-05-14T10:53:37;5.32;;;2.80;;
73859;SDS011;62197;51.632;13.700;2023-05-14T10:56:05;4.88;;;3.00;;
73859;SDS011;62197;51.632;13.700;2023-05-14T10:58:39;4.53;;;2.72;;
73859;SDS011;62197;51.632;13.700;2023-05-14T11:01:06;3.50;;;3.20;;
73859;SDS011;62197;51.632;13.700;2023-05-14T11:03:37;3.35;;;2.78;;
73859;SDS011;62197;51.632;13.700;2023-05-14T11:06:07;5.45;;;2.88;;
73859;SDS011;62197;51.632;13.700;2023-05-14T11:08:34;4.57;;;2.83;;
73859;SDS011;62197;51.632;13.700;2023-05-14T11:10:59;4.50;;;3.22;;
73859;SDS011;62197;51.632;13.700;2023-05-14T11:13:25;3.80;;;3.00;;
73859;SDS011;62197;51.632;13.700;2023-05-14T11:15:50;10.05;;;3.85;;
73859;SDS011;62197;51.632;13.700;2023-05-14T11:18:26;5.60;;;3.03;;
73859;SDS011;62197;51.632;13.700;2023-05-14T11:20:52;5.40;;;3.10;;
73859;SDS011;62197;51.632;13.700;2023-05-14T11:23:19;3.90;;;3.13;;
73859;SDS011;62197;51.632;13.700;2023-05-14T11:25:46;5.43;;;3.58;;
73859;SDS011;62197;51.632;13.700;2023-05-14T11:28:12;5.93;;;3.40;;
73859;SDS011;62197;51.632;13.700;2023-05-14T11:30:37;4.25;;;3.05;;
73859;SDS011;62197;51.632;13.700;2023-05-14T11:33:02;3.88;;;2.90;;
73859;SDS011;62197;51.632;13.700;2023-05-14T11:35:28;4.82;;;3.45;;
73859;SDS011;62197;51.632;13.700;2023-05-14T11:37:54;3.97;;;3.35;;
73859;SDS011;62197;51.632;13.700;2023-05-14T11:40:19;4.07;;;3.22;;
73859;SDS011;62197;51.632;13.700;2023-05-14T11:42:45;5.00;;;3.38;;
73859;SDS011;62197;51.632;13.700;2023-05-14T11:45:10;6.82;;;3.78;;
73859;SDS011;62197;51.632;13.700;2023-05-14T11:47:36;7.70;;;3.92;;
73859;SDS011;62197;51.632;13.700;2023-05-14T11:50:01;5.65;;;4.20;;
73859;SDS011;62197;51.632;13.700;2023-05-14T11:52:27;5.97;;;4.03;;
73859;SDS011;62197;51.632;13.700;2023-05-14T11:54:52;4.47;;;4.07;;
73859;SDS011;62197;51.632;13.700;2023-05-14T11:57:18;6.30;;;4.00;;
73859;SDS011;62197;51.632;13.700;2023-05-14T11:59:45;6.40;;;4.18;;
73859;SDS011;62197;51.632;13.700;2023-05-14T12:02:12;5.35;;;3.92;;
73859;SDS011;62197;51.632;13.700;2023-05-14T12:04:39;7.45;;;4.18;;
73859;SDS011;62197;51.632;13.700;2023-05-14T12:07:09;8.15;;;4.25;;
73859;SDS011;62197;51.632;13.700;2023-05-14T12:09:37;6.13;;;4.00;;
73859;SDS011;62197;51.632;13.700;2023-05-14T12:12:07;7.57;;;4.40;;
73859;SDS011;62197;51.632;13.700;2023-05-14T12:14:36;5.50;;;4.00;;
73859;SDS011;62197;51.632;13.700;2023-05-14T12:17:10;6.85;;;4.25;;
73859;SDS011;62197;51.632;13.700;2023-05-14T12:19:40;5.22;;;3.90;;
73859;SDS011;62197;51.632;13.700;2023-05-14T12:22:06;4.85;;;3.78;;
73859;SDS011;62197;51.632;13.700;2023-05-14T12:24:32;6.30;;;4.13;;
73859;SDS011;62197;51.632;13.700;2023-05-14T12:26:59;7.38;;;3.95;;
73859;SDS011;62197;51.632;13.700;2023-05-14T12:29:25;4.53;;;3.92;;
73859;SDS011;62197;51.632;13.700;2023-05-14T12:31:51;4.93;;;4.10;;
73859;SDS011;62197;51.632;13.700;2023-05-14T12:34:16;5.95;;;3.92;;
73859;SDS011;62197;51.632;13.700;2023-05-14T12:36:42;6.10;;;4.28;;
73859;SDS011;62197;51.632;13.700;2023-05-14T12:39:07;5.72;;;3.80;;
73859;SDS011;62197;51.632;13.700;2023-05-14T12:41:34;4.82;;;4.20;;
73859;SDS011;62197;51.632;13.700;2023-05-14T12:44:00;7.90;;;4.13;;
73859;SDS011;62197;51.632;13.700;2023-05-14T12:46:27;5.88;;;3.90;;
73859;SDS011;62197;51.632;13.700;2023-05-14T12:48:53;5.32;;;4.13;;
73859;SDS011;62197;51.632;13.700;2023-05-14T12:51:18;5.97;;;4.00;;
73859;SDS011;62197;51.632;13.700;2023-05-14T12:53:44;7.20;;;4.63;;
73859;SDS011;62197;51.632;13.700;2023-05-14T12:56:09;4.70;;;4.25;;
73859;SDS011;62197;51.632;13.700;2023-05-14T12:58:35;6.07;;;4.20;;
73859;SDS011;62197;51.632;13.700;2023-05-14T13:01:00;7.93;;;3.58;;
73859;SDS011;62197;51.632;13.700;2023-05-14T13:03:26;6.32;;;3.83;;
73859;SDS011;62197;51.632;13.700;2023-05-14T13:05:51;5.70;;;4.00;;
73859;SDS011;62197;51.632;13.700;2023-05-14T13:08:17;6.18;;;3.88;;
73859;SDS011;62197;51.632;13.700;2023-05-14T13:10:45;5.35;;;3.95;;
73859;SDS011;62197;51.632;13.700;2023-05-14T13:13:11;5.32;;;3.65;;
73859;SDS011;62197;51.632;13.700;2023-05-14T13:15:36;4.90;;;4.03;;
73859;SDS011;62197;51.632;13.700;2023-05-14T13:18:02;5.10;;;4.22;;
73859;SDS011;62197;51.632;13.700;2023-05-14T13:20:28;6.93;;;4.22;;
73859;SDS011;62197;51.632;13.700;2023-05-14T13:22:55;6.32;;;4.22;;
73859;SDS011;62197;51.632;13.700;2023-05-14T13:25:20;5.97;;;3.90;;
73859;SDS011;62197;51.632;13.700;2023-05-14T13:27:46;6.10;;;3.80;;
73859;SDS011;62197;51.632;13.700;2023-05-14T13:30:11;4.93;;;3.40;;
73859;SDS011;62197;51.632;13.700;2023-05-14T13:32:37;5.35;;;3.60;;
73859;SDS011;62197;51.632;13.700;2023-05-14T13:35:02;5.55;;;4.35;;
73859;SDS011;62197;51.632;13.700;2023-05-14T13:37:27;5.28;;;3.92;;
73859;SDS011;62197;51.632;13.700;2023-05-14T13:39:53;5.47;;;3.75;;
73859;SDS011;62197;51.632;13.700;2023-05-14T13:42:18;5.40;;;4.07;;
73859;SDS011;62197;51.632;13.700;2023-05-14T13:44:43;7.32;;;3.80;;
73859;SDS011;62197;51.632;13.700;2023-05-14T13:47:09;7.90;;;4.38;;
73859;SDS011;62197;51.632;13.700;2023-05-14T13:49:34;7.57;;;4.00;;
73859;SDS011;62197;51.632;13.700;2023-05-14T13:51:59;6.78;;;4.50;;
73859;SDS011;62197;51.632;13.700;2023-05-14T13:54:25;7.72;;;3.70;;
73859;SDS011;62197;51.632;13.700;2023-05-14T13:56:50;6.22;;;3.75;;
73859;SDS011;62197;51.632;13.700;2023-05-14T13:59:15;5.53;;;4.10;;
73859;SDS011;62197;51.632;13.700;2023-05-14T14:01:41;4.60;;;3.30;;
73859;SDS011;62197;51.632;13.700;2023-05-14T14:04:07;5.28;;;3.90;;
73859;SDS011;62197;51.632;13.700;2023-05-14T14:06:33;3.78;;;3.40;;
73859;SDS011;62197;51.632;13.700;2023-05-14T14:08:58;6.80;;;4.25;;
73859;SDS011;62197;51.632;13.700;2023-05-14T14:11:24;5.13;;;3.63;;
73859;SDS011;62197;51.632;13.700;2023-05-14T14:13:49;6.50;;;3.92;;
73859;SDS011;62197;51.632;13.700;2023-05-14T14:16:15;4.53;;;3.95;;
73859;SDS011;62197;51.632;13.700;2023-05-14T14:18:40;5.43;;;3.42;;
73859;SDS011;62197;51.632;13.700;2023-05-14T14:21:07;4.50;;;3.72;;
73859;SDS011;62197;51.632;13.700;2023-05-14T14:23:32;5.85;;;3.72;;
73859;SDS011;62197;51.632;13.700;2023-05-14T14:25:57;3.75;;;3.40;;
73859;SDS011;62197;51.632;13.700;2023-05-14T14:28:23;6.32;;;3.75;;
73859;SDS011;62197;51.632;13.700;2023-05-14T14:30:48;5.35;;;3.58;;
73859;SDS011;62197;51.632;13.700;2023-05-14T14:33:14;6.03;;;3.50;;
73859;SDS011;62197;51.632;13.700;2023-05-14T14:35:39;6.60;;;3.28;;
73859;SDS011;62197;51.632;13.700;2023-05-14T14:38:05;4.07;;;3.40;;
73859;SDS011;62197;51.632;13.700;2023-05-14T14:40:31;4.90;;;3.83;;
73859;SDS011;62197;51.632;13.700;2023-05-14T14:42:59;4.95;;;3.85;;
73859;SDS011;62197;51.632;13.700;2023-05-14T14:45:26;4.93;;;3.75;;
73859;SDS011;62197;51.632;13.700;2023-05-14T14:47:51;6.53;;;4.00;;
73859;SDS011;62197;51.632;13.700;2023-05-14T14:50:46;4.63;;;3.70;;
73859;SDS011;62197;51.632;13.700;2023-05-14T14:53:11;4.57;;;3.42;;
73859;SDS011;62197;51.632;13.700;2023-05-14T14:55:37;4.90;;;3.47;;
73859;SDS011;62197;51.632;13.700;2023-05-14T14:58:02;5.22;;;3.55;;
73859;SDS011;62197;51.632;13.700;2023-05-14T15:00:27;6.40;;;3.78;;
73859;SDS011;62197;51.632;13.700;2023-05-14T15:02:53;6.28;;;3.80;;
73859;SDS011;62197;51.632;13.700;2023-05-14T15:05:18;5.07;;;3.42;;
73859;SDS011;62197;51.632;13.700;2023-05-14T15:07:43;4.20;;;3.75;;
73859;SDS011;62197;51.632;13.700;2023-05-14T15:10:09;7.43;;;3.78;;
73859;SDS011;62197;51.632;13.700;2023-05-14T15:12:34;7.97;;;3.95;;
73859;SDS011;62197;51.632;13.700;2023-05-14T15:15:00;4.35;;;3.38;;
73859;SDS011;62197;51.632;13.700;2023-05-14T15:17:25;4.63;;;3.38;;
73859;SDS011;62197;51.632;13.700;2023-05-14T15:19:50;6.28;;;3.70;;
73859;SDS011;62197;51.632;13.700;2023-05-14T15:22:16;5.03;;;3.70;;
73859;SDS011;62197;51.632;13.700;2023-05-14T15:24:41;6.75;;;4.05;;
73859;SDS011;62197;51.632;13.700;2023-05-14T15:27:06;5.25;;;3.40;;
73859;SDS011;62197;51.632;13.700;2023-05-14T15:29:32;3.92;;;3.53;;
73859;SDS011;62197;51.632;13.700;2023-05-14T15:31:57;6.72;;;3.50;;
73859;SDS011;62197;51.632;13.700;2023-05-14T15:34:22;5.60;;;3.63;;
73859;SDS011;62197;51.632;13.700;2023-05-14T15:36:48;5.45;;;3.63;;
73859;SDS011;62197;51.632;13.700;2023-05-14T15:39:13;9.68;;;4.40;;
73859;SDS011;62197;51.632;13.700;2023-05-14T15:41:38;6.60;;;3.78;;
73859;SDS011;62197;51.632;13.700;2023-05-14T15:44:04;4.57;;;3.67;;
73859;SDS011;62197;51.632;13.700;2023-05-14T15:46:29;6.10;;;3.85;;
73859;SDS011;62197;51.632;13.700;2023-05-14T15:48:54;7.10;;;3.80;;
73859;SDS011;62197;51.632;13.700;2023-05-14T15:51:20;4.25;;;3.85;;
73859;SDS011;62197;51.632;13.700;2023-05-14T15:53:45;4.90;;;3.83;;
73859;SDS011;62197;51.632;13.700;2023-05-14T15:56:10;4.80;;;3.28;;
73859;SDS011;62197;51.632;13.700;2023-05-14T15:58:36;5.15;;;3.30;;
73859;SDS011;62197;51.632;13.700;2023-05-14T16:01:01;4.78;;;3.90;;
73859;SDS011;62197;51.632;13.700;2023-05-14T16:03:27;6.15;;;3.60;;
73859;SDS011;62197;51.632;13.700;2023-05-14T16:05:52;4.68;;;4.20;;
73859;SDS011;62197;51.632;13.700;2023-05-14T16:08:18;4.55;;;3.15;;
73859;SDS011;62197;51.632;13.700;2023-05-14T16:10:44;5.38;;;3.88;;
73859;SDS011;62197;51.632;13.700;2023-05-14T16:13:09;5.38;;;3.85;;
73859;SDS011;62197;51.632;13.700;2023-05-14T16:15:34;6.05;;;3.97;;
73859;SDS011;62197;51.632;13.700;2023-05-14T16:18:00;5.95;;;3.05;;
73859;SDS011;62197;51.632;13.700;2023-05-14T16:20:25;4.40;;;3.42;;